עמוד ראשי
METAR-TAF:

METAR-TAF

שדות תעופה :

נמל התעופה הבינלאומי חוסה מארטי

הוואנה, קובה

קו רוחב: 22-59N, קו אורך: 082-24W, גובה: 59מטר

תצפית מזג אוויר נוכחית

הדו"ח נערך לפני 46דקות, בשעה 08:50 UTC
רוח רגועה
טמפרטורת 24 צלסיוס
לחות 100%
לחץ 1014 hPa
ראות: 8000מטר

METAR: MUHA 270850Z 00000KT 8000 NSC 24/24 Q1014

זמן: 05:36 (09:36 UTC)

תחזית

הדו"ח נערך לפני 4 שעות ו 36דקות, בשעה 05:00 UTC
תחזית בתוקף מ 27 ב 06 UTC עד 28 ב 06 UTC
רוח 6קשר עם כיוונים משתנים
ראות: 9000מטר
מעט עננים בגובה 3000רגל
זמנית מ -
27 ב 21 UTC עד 27 ב 23 UTC
ראות: 5000מטר
עננים בינוניים בגובה 2500רגל
ממטרי גשם,

TAF: MUHA 270500Z 2706/2806 VRB06KT 9000 FEW030 TEMPO 2721/2723 5000 SHRA BKN025

תצפיות ותחזיות מזג אוויר לגבי יותר מ- 4,000 שדות תעופה ברחבי העולם. דוחות METAR ו- TAF.

התחנות הזמינות מסומנות בנקודות צהובות ואדומות על גבי המפה.

העבר את העכבר לנקודה הצבעונית על מנת לראות את שם התחנה.

לאחר מכן, לחץ כדי לראות את תוכן ואת תחזיות מזג האוויר.

כדי לשנות את המפה: לחץ על הכפתורים הירוקים עם הפלוס השחור כדי להתקרב; על הכפתור הירוק עם המקף כדי להתרחק; או בחיצים הירוקים למפות סמוכות.


METAR-TAF: